createdAt,value
2018-04-19T00:04:17.735Z,14.55
2018-04-19T00:10:22.113Z,14.25
2018-04-19T00:16:26.488Z,14.20
2018-04-19T00:22:30.889Z,14.08
2018-04-19T00:28:35.265Z,13.95
2018-04-19T00:34:39.818Z,13.79
2018-04-19T00:40:44.540Z,13.73
2018-04-19T00:46:48.999Z,13.87
2018-04-19T00:53:09.417Z,13.88
2018-04-19T00:59:14.000Z,13.84
2018-04-19T01:05:18.377Z,14.07
2018-04-19T01:11:22.778Z,14.45
2018-04-19T01:17:27.156Z,14.50
2018-04-19T01:23:31.649Z,14.37
2018-04-19T01:29:36.014Z,14.35
2018-04-19T01:35:58.188Z,14.30
2018-04-19T01:42:02.613Z,14.29
2018-04-19T01:48:06.999Z,14.33
2018-04-19T01:54:13.087Z,14.44
2018-04-19T02:00:18.273Z,14.24
2018-04-19T02:06:22.650Z,14.19
2018-04-19T02:12:27.096Z,14.28
2018-04-19T02:18:31.476Z,14.17
2018-04-19T02:24:35.849Z,14.17
2018-04-19T02:30:40.303Z,14.14
2018-04-19T02:36:45.550Z,13.99
2018-04-19T02:42:50.157Z,13.87
2018-04-19T02:48:54.573Z,14.02
2018-04-19T02:54:58.959Z,13.96
2018-04-19T03:01:03.344Z,13.56
2018-04-19T03:07:07.765Z,13.55
2018-04-19T03:13:12.383Z,13.48
2018-04-19T03:19:16.746Z,13.46
2018-04-19T03:25:21.150Z,13.38
2018-04-19T03:31:25.542Z,13.59
2018-04-19T03:37:30.075Z,13.39
2018-04-19T03:43:34.439Z,13.32
2018-04-19T03:49:39.858Z,13.22
2018-04-19T03:55:44.454Z,13.16
2018-04-19T04:01:48.929Z,13.16
2018-04-19T04:07:53.396Z,12.99
2018-04-19T04:13:57.796Z,12.96
2018-04-19T04:20:19.809Z,13.04
2018-04-19T04:26:24.210Z,13.06
2018-04-19T04:32:29.523Z,13.10
2018-04-19T04:38:33.899Z,13.02
2018-04-19T04:44:38.302Z,13.05
2018-04-19T04:50:42.936Z,12.94
2018-04-19T04:56:47.338Z,12.80
2018-04-19T05:02:52.544Z,12.85
2018-04-19T05:08:56.901Z,12.75
2018-04-19T05:15:01.394Z,12.93
2018-04-19T05:21:05.885Z,12.92
2018-04-19T05:27:10.261Z,12.92
2018-04-19T05:33:15.523Z,13.01
2018-04-19T05:39:20.332Z,13.06
2018-04-19T05:45:24.804Z,13.25
2018-04-19T05:51:29.195Z,13.46
2018-04-19T05:57:33.588Z,13.55
2018-04-19T06:03:37.974Z,13.90
2018-04-19T06:09:42.397Z,14.26
2018-04-19T06:15:46.766Z,14.53
2018-04-19T06:21:51.181Z,15.04
2018-04-19T06:27:55.564Z,15.19
2018-04-19T06:33:59.951Z,15.40
2018-04-19T06:40:04.364Z,15.88
2018-04-19T06:46:08.725Z,16.38
2018-04-19T06:52:13.304Z,19.09
2018-04-19T06:58:18.681Z,24.42
2018-04-19T07:04:24.631Z,23.34
2018-04-19T07:10:29.111Z,21.19
2018-04-19T07:16:33.507Z,20.44
2018-04-19T07:22:37.891Z,19.95
2018-04-19T07:28:42.483Z,19.76
2018-04-19T07:34:46.867Z,20.16
2018-04-19T07:40:51.294Z,20.50
2018-04-19T07:46:55.796Z,21.06
2018-04-19T07:53:00.191Z,21.55
2018-04-19T07:59:04.590Z,22.02
2018-04-19T08:05:09.733Z,22.45
2018-04-19T08:11:14.614Z,22.66
2018-04-19T08:17:18.987Z,23.18
2018-04-19T08:23:23.367Z,23.30
2018-04-19T08:29:27.830Z,23.86
2018-04-19T08:35:32.194Z,24.19
2018-04-19T08:41:37.761Z,24.70
2018-04-19T08:47:42.193Z,25.26
2018-04-19T08:53:46.582Z,25.43
2018-04-19T08:59:50.975Z,25.95
2018-04-19T09:05:55.375Z,26.05
2018-04-19T09:12:00.503Z,26.36
2018-04-19T09:18:04.872Z,26.99
2018-04-19T09:24:09.369Z,27.29
2018-04-19T09:30:13.948Z,27.42
2018-04-19T09:36:18.351Z,27.72
2018-04-19T09:42:22.726Z,28.59
2018-04-19T09:48:27.914Z,29.47
2018-04-19T09:54:32.326Z,29.98
2018-04-19T10:00:43.045Z,30.41
2018-04-19T10:06:48.181Z,31.42
2018-04-19T10:12:52.555Z,31.94
2018-04-19T10:18:57.028Z,32.50
2018-04-19T10:25:01.390Z,32.86
2018-04-19T10:31:05.777Z,33.42
2018-04-19T10:37:10.158Z,33.75
2018-04-19T10:43:14.563Z,34.61
2018-04-19T10:49:18.996Z,35.19
2018-04-19T10:55:23.373Z,36.01
2018-04-19T11:01:27.847Z,37.01
2018-04-19T11:07:32.243Z,37.05
2018-04-19T11:13:36.708Z,38.24
2018-04-19T11:19:41.908Z,39.85
2018-04-19T11:25:46.356Z,39.10
2018-04-19T11:31:51.512Z,40.52
2018-04-19T11:37:55.940Z,40.28
2018-04-19T11:44:00.303Z,41.08
2018-04-19T11:50:04.727Z,42.07
2018-04-19T11:56:09.160Z,41.43
2018-04-19T12:02:14.375Z,42.29
2018-04-19T12:08:18.828Z,42.79
2018-04-19T12:14:23.201Z,42.80
2018-04-19T12:20:27.588Z,42.26
2018-04-19T12:26:31.960Z,42.09
2018-04-19T12:32:36.336Z,40.81
2018-04-19T12:38:40.786Z,41.93
2018-04-19T12:44:45.191Z,42.27
2018-04-19T12:50:49.707Z,42.96
2018-04-19T12:56:54.136Z,43.73
2018-04-19T13:02:59.429Z,43.73
2018-04-19T13:09:04.719Z,43.54
2018-04-19T13:15:10.952Z,43.12
2018-04-19T13:21:15.433Z,44.28
2018-04-19T13:27:19.802Z,44.05
2018-04-19T13:33:24.239Z,43.17
2018-04-19T13:39:28.654Z,43.00
2018-04-19T13:45:33.039Z,43.03
2018-04-19T13:51:37.421Z,42.66
2018-04-19T13:57:42.027Z,42.36
2018-04-19T14:03:46.769Z,42.99
2018-04-19T14:09:51.145Z,42.05
2018-04-19T14:15:55.503Z,42.35
2018-04-19T14:22:00.646Z,41.86
2018-04-19T14:28:05.049Z,42.26
2018-04-19T14:34:09.481Z,42.68
2018-04-19T14:40:14.823Z,42.89
2018-04-19T14:46:19.182Z,42.92
2018-04-19T14:52:23.623Z,43.58
2018-04-19T14:58:27.999Z,44.47
2018-04-19T15:04:32.375Z,44.35
2018-04-19T15:10:36.751Z,43.46
2018-04-19T15:16:41.160Z,43.69
2018-04-19T15:22:45.657Z,42.37
2018-04-19T15:28:50.033Z,42.81
2018-04-19T15:34:54.463Z,42.35
2018-04-19T15:40:58.842Z,42.66
2018-04-19T15:47:03.304Z,42.76
2018-04-19T15:53:07.684Z,42.04
2018-04-19T15:59:12.111Z,41.71
2018-04-19T16:05:16.498Z,42.15
2018-04-19T16:11:21.700Z,42.18
2018-04-19T16:17:26.032Z,42.14
2018-04-19T16:23:30.407Z,41.48
2018-04-19T16:29:34.771Z,42.04
2018-04-19T16:35:39.141Z,42.30
2018-04-19T16:41:43.841Z,41.96
2018-04-19T16:47:48.269Z,41.44
2018-04-19T16:53:52.720Z,40.55
2018-04-19T16:59:57.886Z,40.16
2018-04-19T17:06:02.264Z,39.43
2018-04-19T17:12:06.664Z,38.74
2018-04-19T17:18:11.903Z,37.05
2018-04-19T17:24:16.321Z,36.25
2018-04-19T17:30:20.762Z,35.10
2018-04-19T17:36:25.131Z,34.23
2018-04-19T17:42:29.514Z,32.99
2018-04-19T17:48:33.894Z,31.13
2018-04-19T17:54:38.265Z,29.65
2018-04-19T18:00:42.945Z,27.84
2018-04-19T18:06:47.339Z,26.35
2018-04-19T18:12:51.706Z,25.33
2018-04-19T18:18:56.078Z,24.23
2018-04-19T18:25:00.475Z,23.43
2018-04-19T18:31:04.866Z,22.89
2018-04-19T18:37:10.024Z,22.51
2018-04-19T18:43:14.451Z,22.30
2018-04-19T18:49:19.609Z,21.90
2018-04-19T18:55:23.982Z,21.57
2018-04-19T19:01:28.368Z,21.45
2018-04-19T19:07:33.515Z,21.47
2018-04-19T19:13:37.989Z,21.27
2018-04-19T19:20:00.173Z,21.10
2018-04-19T19:26:04.559Z,21.06
2018-04-19T19:32:08.931Z,20.43
2018-04-19T19:38:13.369Z,20.38
2018-04-19T19:44:18.598Z,20.10
2018-04-19T19:50:22.980Z,20.22
2018-04-19T19:56:27.371Z,20.32
2018-04-19T20:02:31.789Z,20.24
2018-04-19T20:08:36.948Z,20.17
2018-04-19T20:14:41.339Z,20.13
2018-04-19T20:20:45.751Z,19.84
2018-04-19T20:26:51.007Z,19.57
2018-04-19T20:32:55.388Z,19.31
2018-04-19T20:38:59.819Z,19.31
2018-04-19T20:45:04.187Z,19.24
2018-04-19T20:51:08.582Z,19.03
2018-04-19T20:57:13.040Z,19.00
2018-04-19T21:03:17.506Z,18.71
2018-04-19T21:09:21.915Z,18.65
2018-04-19T21:15:26.284Z,18.65
2018-04-19T21:21:30.676Z,18.42
2018-04-19T21:27:35.115Z,18.38
2018-04-19T21:33:39.550Z,18.28
2018-04-19T21:39:44.032Z,18.19
2018-04-19T21:45:49.198Z,18.15
2018-04-19T21:51:53.626Z,18.15
2018-04-19T21:57:57.999Z,18.06
2018-04-19T22:04:03.206Z,17.88
2018-04-19T22:10:07.584Z,17.78
2018-04-19T22:16:12.386Z,17.50
2018-04-19T22:22:16.765Z,17.40
2018-04-19T22:28:21.143Z,17.22
2018-04-19T22:34:25.532Z,17.04
2018-04-19T22:40:29.960Z,16.92
2018-04-19T22:46:34.402Z,16.84
2018-04-19T22:52:38.863Z,16.73
2018-04-19T22:58:43.354Z,16.72
2018-04-19T23:04:47.780Z,16.72
2018-04-19T23:10:52.152Z,16.66
2018-04-19T23:16:56.625Z,16.50
2018-04-19T23:23:01.101Z,16.34
2018-04-19T23:29:05.465Z,16.29
2018-04-19T23:35:09.911Z,16.21
2018-04-19T23:41:14.435Z,16.23
2018-04-19T23:47:18.979Z,16.20
2018-04-19T23:53:23.389Z,16.38
2018-04-19T23:59:27.789Z,16.33
